White Lake, South Dakota
Current Conditions -  °F | °C
As of 9:35 PM on Friday 28 Nov 2014 (Local Time) from K9V9 Reporting Station
Clear Clear  
Wind Chill: 22°   Ceiling: Unl
Heat Index: 28°   Visibility: 10mi
Dew Point: 24°   Wind: 6mph
Humidity: 87%   Direction: 120°ESE
Pressure: 29.54"   Gusts: NA
Location:  43.73°N, 98.71°W
Report Text: K9V9 290335Z AUTO 12005KT 10SM CLR M02/M04 A2954 RMK AO2 T10231042
Loading
Personal Weather Stations






























Interactive Weather Map New forecast layout! Learn more

10-Day Weather Forecast

Advertisements
Track Severe Weather on mobile